Time;durP1;ratioP1;P1;durP2;ratioP2;P2;SDS_P1;SDS_P2;PMS_P1;PMS_P2;Temp;Humidity;BMP_temperature;BMP_pressure;BME280_temperature;BME280_humidity;BME280_pressure;Samples;Min_cycle;Max_cycle;Signal;HPM_P1;HPM_P2
2023/03/29 00:01:01;;;;;;;3.53;0.80;;;;;;;4.30;42.57;100042.59;3159977;28;20051;-69
2023/03/29 00:02:33;;;;;;;3.20;0.98;;;;;;;4.39;42.58;100047.59;3160449;28;20063;-69
2023/03/29 00:04:05;;;;;;;1.55;0.60;;;;;;;4.41;42.46;100060.47;3160557;28;20052;-70
2023/03/29 00:05:39;;;;;;;3.92;0.82;;;;;;;4.38;42.44;100058.81;3160491;28;20503;-71
2023/03/29 00:07:12;;;;;;;1.65;1.00;;;;;;;4.36;42.44;100052.81;3160224;28;20062;-68
2023/03/29 00:08:45;;;;;;;1.45;0.70;;;;;;;4.31;42.55;100058.03;3160294;28;20563;-69
2023/03/29 00:10:17;;;;;;;7.20;0.93;;;;;;;4.32;42.62;100053.75;3160390;28;20112;-69
2023/03/29 00:11:49;;;;;;;2.17;1.00;;;;;;;4.31;42.60;100063.19;3160137;28;20098;-69
2023/03/29 00:13:21;;;;;;;3.90;0.95;;;;;;;4.15;42.72;100032.53;3159836;28;20051;-70
2023/03/29 00:14:53;;;;;;;2.25;0.90;;;;;;;4.31;42.71;100057.19;3160832;28;20054;-70
2023/03/29 00:16:27;;;;;;;4.78;1.02;;;;;;;4.27;42.71;100046.06;3159740;28;21016;-70
2023/03/29 00:17:58;;;;;;;;;;;;;;;4.28;42.82;100059.81;3159398;28;20058;-69
2023/03/29 00:19:34;;;;;;;1.65;0.77;;;;;;;4.22;42.83;100047.84;3160699;28;20027;-70
2023/03/29 00:21:06;;;;;;;2.75;0.85;;;;;;;4.24;43.00;100059.00;3160523;28;20054;-69
2023/03/29 00:22:40;;;;;;;4.07;0.75;;;;;;;4.25;43.02;100065.00;3159725;28;20048;-69
2023/03/29 00:24:12;;;;;;;3.92;0.95;;;;;;;4.25;42.99;100068.44;3159732;28;20063;-70
2023/03/29 00:25:45;;;;;;;1.10;0.80;;;;;;;4.28;42.88;100070.97;3159561;28;20116;-69
2023/03/29 00:27:17;;;;;;;6.00;1.02;;;;;;;4.30;43.02;100068.38;3159798;28;20059;-69
2023/03/29 00:28:49;;;;;;;1.00;0.73;;;;;;;4.29;42.80;100064.94;3149016;28;20056;-69
2023/03/29 00:30:21;;;;;;;1.40;0.70;;;;;;;4.28;42.81;100070.97;3159890;28;20054;-70
2023/03/29 00:31:55;;;;;;;5.50;1.00;;;;;;;3.78;42.83;99992.69;3160691;28;20053;-69
2023/03/29 00:33:27;;;;;;;2.08;1.00;;;;;;;4.30;42.84;100074.38;3159517;28;20043;-70
2023/03/29 00:34:59;;;;;;;3.42;1.20;;;;;;;4.30;42.87;100078.69;3159568;28;20774;-70
2023/03/29 00:36:31;;;;;;;3.92;0.98;;;;;;;4.28;42.78;100083.84;3160732;28;20159;-69
2023/03/29 00:38:04;;;;;;;4.93;0.82;;;;;;;4.28;42.70;100091.59;3160561;28;20063;-70
2023/03/29 00:39:39;;;;;;;3.90;1.30;;;;;;;4.26;42.78;100082.16;3159579;28;20044;-69
2023/03/29 00:41:11;;;;;;;2.97;0.90;;;;;;;4.26;42.69;100090.78;3157180;28;20105;-70
2023/03/29 00:42:45;;;;;;;1.67;1.08;;;;;;;4.26;42.84;100092.47;3157441;28;20078;-70
2023/03/29 00:44:35;;;;;;;;;;;;;;;4.21;42.85;100090.00;3157663;28;20162;-70
2023/03/29 00:46:08;;;;;;;1.17;0.60;;;;;;;3.28;42.88;99955.59;3161696;28;20004;-70
2023/03/29 00:47:43;;;;;;;;;;;;;;;4.14;43.00;100085.81;3162387;28;20280;-69
2023/03/29 00:49:15;;;;;;;7.38;1.02;;;;;;;4.09;42.97;100085.00;3162156;28;19935;-70
2023/03/29 00:50:50;;;;;;;1.85;0.90;;;;;;;4.09;43.05;100090.16;3161845;28;20511;-69
2023/03/29 00:52:22;;;;;;;3.78;0.82;;;;;;;4.10;43.05;100092.72;3162057;28;20047;-70
2023/03/29 00:53:56;;;;;;;2.05;1.13;;;;;;;4.09;42.99;100092.75;3162196;28;20056;-69
2023/03/29 00:55:35;;;;;;;2.00;1.30;;;;;;;4.09;42.92;100082.44;3161970;28;20104;-70
2023/03/29 00:57:08;;;;;;;2.58;0.70;;;;;;;4.08;43.04;100093.59;3161907;28;20279;-70
2023/03/29 00:58:46;;;;;;;3.47;0.77;;;;;;;4.07;43.35;100097.91;3156860;28;20108;-69
2023/03/29 01:00:22;;;;;;;2.75;1.13;;;;;;;4.06;43.30;100090.22;3161205;27;20053;-70
2023/03/29 01:02:00;;;;;;;2.53;0.85;;;;;;;4.05;43.38;100098.78;3157784;28;20051;-70
2023/03/29 01:03:40;;;;;;;2.20;1.00;;;;;;;4.06;43.26;100097.94;3162162;28;20058;-70
2023/03/29 01:05:16;;;;;;;2.25;0.93;;;;;;;4.05;43.29;100098.78;3162425;28;20656;-69
2023/03/29 01:06:53;;;;;;;2.83;1.17;;;;;;;4.05;43.16;100107.41;3162490;28;20432;-69
2023/03/29 01:08:29;;;;;;;1.35;0.73;;;;;;;4.05;43.34;100109.09;3162791;28;20074;-69
2023/03/29 01:10:07;;;;;;;1.95;0.75;;;;;;;3.55;43.08;100043.63;3163251;28;20126;-69
2023/03/29 01:11:45;;;;;;;2.90;1.00;;;;;;;4.04;43.19;100113.41;3163107;28;20135;-68
2023/03/29 01:13:21;;;;;;;3.20;0.90;;;;;;;4.06;43.01;100106.53;3158496;28;20526;-67
2023/03/29 01:14:56;;;;;;;2.13;1.05;;;;;;;4.04;42.93;100110.84;3153962;28;20054;-68
2023/03/29 01:16:38;;;;;;;2.28;1.02;;;;;;;4.07;42.87;100122.84;3158768;28;20143;-68
2023/03/29 01:18:10;;;;;;;1.63;0.90;;;;;;;4.05;42.93;100119.41;3162365;28;20048;-68
2023/03/29 01:19:48;;;;;;;3.65;1.02;;;;;;;4.03;43.06;100118.59;3161627;28;20083;-67
2023/03/29 01:21:23;;;;;;;4.88;1.10;;;;;;;4.01;42.90;100118.59;3161728;28;20047;-68
2023/03/29 01:23:15;;;;;;;3.78;1.15;;;;;;;3.97;43.03;100116.94;3161447;28;20851;-68
2023/03/29 01:25:04;;;;;;;6.03;1.13;;;;;;;3.94;43.02;100109.25;3161946;28;20055;-68
2023/03/29 01:26:47;;;;;;;2.53;1.27;;;;;;;3.98;43.10;100110.06;3161612;28;20043;-68
2023/03/29 01:28:24;;;;;;;4.68;1.23;;;;;;;3.97;43.05;100114.38;3153574;28;20052;-68
2023/03/29 01:30:03;;;;;;;1.88;0.90;;;;;;;3.93;43.01;100117.00;3159400;28;20221;-69
2023/03/29 01:31:39;;;;;;;4.47;1.00;;;;;;;3.96;43.04;100106.66;3159733;28;20048;-68
2023/03/29 01:33:20;;;;;;;2.47;1.05;;;;;;;3.98;42.95;100103.19;3154072;28;20858;-68
2023/03/29 01:34:57;;;;;;;1.55;0.80;;;;;;;3.97;43.01;100116.94;3149887;28;20055;-68
2023/03/29 01:36:35;;;;;;;3.17;1.10;;;;;;;3.97;42.92;100111.81;3159402;28;20752;-67
2023/03/29 01:38:14;;;;;;;1.80;0.88;;;;;;;3.94;42.87;100105.84;3161209;28;20240;-68
2023/03/29 01:39:46;;;;;;;1.83;0.80;;;;;;;3.94;42.71;100111.00;3159761;28;20051;-67
2023/03/29 01:41:19;;;;;;;1.95;1.10;;;;;;;3.93;42.79;100099.81;3159471;28;20112;-68
2023/03/29 01:42:57;;;;;;;2.25;1.20;;;;;;;3.09;42.75;99965.28;3160312;28;20048;-68
2023/03/29 01:44:36;;;;;;;4.15;1.15;;;;;;;3.93;42.69;100104.97;3161761;28;20116;-68
2023/03/29 01:46:14;;;;;;;3.35;1.23;;;;;;;3.92;42.80;100097.28;3161876;28;20059;-68
2023/03/29 01:47:53;;;;;;;2.50;1.05;;;;;;;3.90;42.88;100094.69;3161635;28;20492;-68
2023/03/29 01:49:31;;;;;;;3.75;1.35;;;;;;;3.92;42.83;100105.00;3161957;28;20136;-70
2023/03/29 01:51:09;;;;;;;5.22;1.58;;;;;;;3.90;43.08;100112.75;3161508;28;20067;-69
2023/03/29 01:52:48;;;;;;;3.97;1.30;;;;;;;3.83;43.09;100096.50;3161680;28;20636;-68
2023/03/29 01:54:26;;;;;;;2.40;1.30;;;;;;;3.89;43.02;100113.63;3161816;28;20424;-68
2023/03/29 01:56:04;;;;;;;2.15;1.33;;;;;;;3.87;42.92;100105.94;3161383;28;20047;-68
2023/03/29 01:57:39;;;;;;;3.25;1.48;;;;;;;3.82;42.83;100109.44;3159846;28;20483;-69
2023/03/29 01:59:14;;;;;;;3.63;1.25;;;;;;;3.91;42.82;100116.19;3159099;28;20048;-68
2023/03/29 02:00:52;;;;;;;2.55;1.38;;;;;;;3.92;42.68;100118.72;3161481;28;20055;-68
2023/03/29 02:02:27;;;;;;;3.53;1.10;;;;;;;3.44;42.97;100048.09;3161422;28;20059;-68
2023/03/29 02:04:03;;;;;;;2.33;1.45;;;;;;;3.93;42.73;100120.44;3161624;28;20043;-69
2023/03/29 02:05:39;;;;;;;4.85;1.20;;;;;;;3.95;42.67;100121.28;3162433;28;20082;-69
2023/03/29 02:07:13;;;;;;;3.55;1.65;;;;;;;3.97;42.69;100131.56;3156453;27;20143;-69
2023/03/29 02:08:45;;;;;;;2.08;1.20;;;;;;;3.98;42.58;100135.84;3157846;28;20113;-70
2023/03/29 02:10:17;;;;;;;2.42;1.20;;;;;;;3.97;42.48;100129.00;3161598;28;20054;-71
2023/03/29 02:11:51;;;;;;;3.65;1.60;;;;;;;3.99;42.47;100134.97;3161821;28;20508;-69
2023/03/29 02:13:22;;;;;;;6.63;1.60;;;;;;;3.97;42.45;100137.56;3160870;28;20048;-69
2023/03/29 02:14:55;;;;;;;2.17;1.30;;;;;;;3.95;42.37;100134.16;3160855;28;20120;-69
2023/03/29 02:16:29;;;;;;;3.55;1.40;;;;;;;3.87;42.48;100123.09;3161903;28;20501;-69
2023/03/29 02:18:02;;;;;;;3.38;1.50;;;;;;;3.94;42.50;100142.75;3161604;28;20065;-69
2023/03/29 02:19:34;;;;;;;2.50;1.52;;;;;;;3.92;42.81;100147.06;3162022;28;20055;-69
2023/03/29 02:21:08;;;;;;;3.90;1.60;;;;;;;3.84;42.83;100149.72;3160677;28;20283;-69
2023/03/29 02:22:49;;;;;;;4.78;1.35;;;;;;;3.81;43.00;100159.22;3161236;28;20051;-67
2023/03/29 02:24:22;;;;;;;4.40;1.30;;;;;;;3.75;43.09;100159.31;3161795;28;20083;-67
2023/03/29 02:25:55;;;;;;;;;;;;;;;3.72;43.22;100162.75;3160977;28;20672;-67
2023/03/29 02:27:29;;;;;;;2.63;1.60;;;;;;;3.62;43.52;100163.75;3160926;28;19981;-68
2023/03/29 02:29:01;;;;;;;5.55;1.55;;;;;;;3.63;43.63;100166.28;3151331;28;20059;-69
2023/03/29 02:30:41;;;;;;;5.05;1.73;;;;;;;3.63;43.65;100170.59;3160816;28;20052;-67
2023/03/29 02:32:20;;;;;;;1.95;1.40;;;;;;;3.62;43.78;100171.47;3161060;28;20061;-68
2023/03/29 02:33:59;;;;;;;2.85;1.30;;;;;;;3.61;43.77;100177.50;3158850;28;20062;-69
2023/03/29 02:35:35;;;;;;;1.80;1.10;;;;;;;3.61;43.74;100175.78;3150457;28;20056;-68
2023/03/29 02:37:10;;;;;;;3.00;1.60;;;;;;;3.60;43.88;100166.31;3160465;28;20055;-70
2023/03/29 02:38:42;;;;;;;4.00;2.22;;;;;;;3.58;43.83;100180.97;3161735;28;20052;-67
2023/03/29 02:40:16;;;;;;;2.47;1.70;;;;;;;3.57;43.67;100171.50;3156265;28;20052;-70
2023/03/29 02:41:50;;;;;;;2.58;1.20;;;;;;;3.59;43.66;100174.09;3162176;28;20063;-70
2023/03/29 02:43:23;;;;;;;2.53;1.38;;;;;;;3.55;43.72;100170.69;3153774;28;20607;-70
2023/03/29 02:44:58;;;;;;;3.72;1.20;;;;;;;3.59;43.58;100176.66;3162506;28;20055;-70
2023/03/29 02:46:30;;;;;;;4.30;1.48;;;;;;;3.60;43.39;100183.50;3162081;28;20051;-70
2023/03/29 02:48:07;;;;;;;2.87;1.00;;;;;;;3.56;43.26;100174.13;3161058;28;20501;-70
2023/03/29 02:49:40;;;;;;;2.70;1.48;;;;;;;3.58;43.10;100167.19;3160810;28;20714;-68
2023/03/29 02:51:17;;;;;;;1.95;1.23;;;;;;;3.50;43.13;100166.47;3160691;28;20577;-70
2023/03/29 02:52:53;;;;;;;3.30;1.40;;;;;;;3.53;43.03;100176.72;3161167;28;20559;-70
2023/03/29 02:54:30;;;;;;;1.20;1.10;;;;;;;3.51;42.94;100169.00;3161660;28;20456;-70
2023/03/29 02:56:02;;;;;;;2.05;1.30;;;;;;;3.50;42.86;100172.47;3163862;28;20052;-69
2023/03/29 02:57:37;;;;;;;2.47;1.27;;;;;;;3.51;42.96;100171.56;3164102;28;20364;-70
2023/03/29 02:59:10;;;;;;;2.22;1.30;;;;;;;3.48;42.86;100168.19;3163286;28;20127;-70
2023/03/29 03:00:46;;;;;;;4.53;1.50;;;;;;;2.77;42.78;100054.81;3159774;28;20579;-70
2023/03/29 03:02:18;;;;;;;3.72;1.75;;;;;;;3.49;42.64;100178.47;3162540;28;20101;-70
2023/03/29 03:03:52;;;;;;;4.93;1.60;;;;;;;3.49;42.82;100180.19;3165273;28;20059;-70
2023/03/29 03:05:24;;;;;;;4.75;1.77;;;;;;;3.48;42.71;100181.91;3164510;28;20051;-70
2023/03/29 03:06:55;;;;;;;3.50;1.50;;;;;;;3.48;42.86;100181.06;3165313;28;20094;-70
2023/03/29 03:08:27;;;;;;;5.90;1.92;;;;;;;3.41;42.79;100159.69;3165279;28;20051;-71
2023/03/29 03:09:59;;;;;;;4.88;1.70;;;;;;;3.44;42.75;100179.41;3165499;28;20066;-70
2023/03/29 03:11:31;;;;;;;2.90;1.58;;;;;;;3.45;42.84;100181.09;3165407;28;20409;-70
2023/03/29 03:13:03;;;;;;;8.25;1.65;;;;;;;3.43;42.82;100191.38;3163976;28;20081;-70
2023/03/29 03:14:35;;;;;;;7.80;1.52;;;;;;;3.43;42.99;100186.25;3165249;28;20100;-71
2023/03/29 03:16:08;;;;;;;3.85;1.50;;;;;;;3.42;42.98;100189.69;3165173;28;20147;-71
2023/03/29 03:17:40;;;;;;;5.65;1.80;;;;;;;3.40;43.05;100187.16;3167761;28;20056;-70
2023/03/29 03:19:13;;;;;;;4.43;1.70;;;;;;;3.39;43.01;100190.56;3170161;28;20425;-71
2023/03/29 03:20:54;;;;;;;6.30;1.77;;;;;;;3.35;43.05;100193.22;3169789;28;20439;-70
2023/03/29 03:22:26;;;;;;;6.57;1.58;;;;;;;3.34;43.16;100194.94;3169648;28;20063;-70
2023/03/29 03:23:58;;;;;;;6.43;1.70;;;;;;;3.32;43.24;100201.81;3170424;28;20549;-70
2023/03/29 03:25:31;;;;;;;5.72;2.55;;;;;;;2.75;43.20;100103.66;3170561;28;20504;-70
2023/03/29 03:27:03;;;;;;;3.43;1.70;;;;;;;3.32;43.30;100204.38;3170361;28;20074;-71
2023/03/29 03:28:35;;;;;;;4.93;1.88;;;;;;;3.28;43.20;100204.41;3157313;28;20305;-70
2023/03/29 03:30:08;;;;;;;7.53;1.63;;;;;;;3.28;43.50;100206.97;3169707;28;20048;-70
2023/03/29 03:31:40;;;;;;;;;;;;;;;3.27;43.39;100205.28;3170981;27;20047;-71
2023/03/29 03:33:12;;;;;;;4.70;1.60;;;;;;;3.18;43.42;100201.91;3170302;28;19927;-70
2023/03/29 03:34:45;;;;;;;2.78;1.63;;;;;;;3.21;43.42;100205.34;3170256;28;20051;-70
2023/03/29 03:36:17;;;;;;;3.05;2.05;;;;;;;3.21;43.41;100213.06;3168837;28;20497;-70
2023/03/29 03:37:49;;;;;;;4.63;1.73;;;;;;;3.20;43.51;100214.78;3163531;28;20047;-70
2023/03/29 03:39:20;;;;;;;4.13;1.88;;;;;;;3.20;43.54;100212.22;3168526;28;20063;-69
2023/03/29 03:40:55;;;;;;;5.22;2.33;;;;;;;2.89;43.42;100170.44;3164577;28;20050;-70
2023/03/29 03:42:28;;;;;;;5.68;2.08;;;;;;;3.21;43.44;100221.63;3169097;28;20050;-69
2023/03/29 03:43:59;;;;;;;6.10;2.00;;;;;;;2.72;43.57;100137.13;3163035;28;20107;-70
2023/03/29 03:45:31;;;;;;;6.18;2.22;;;;;;;3.20;43.46;100219.94;3170006;28;20040;-68
2023/03/29 03:47:04;;;;;;;5.38;1.98;;;;;;;3.21;43.51;100213.06;3170370;28;20118;-69
2023/03/29 03:48:36;;;;;;;3.78;2.38;;;;;;;3.22;43.41;100220.75;3169944;28;20100;-70
2023/03/29 03:50:10;;;;;;;4.55;1.90;;;;;;;3.19;43.33;100213.94;3169432;28;20078;-69
2023/03/29 03:51:44;;;;;;;6.53;1.83;;;;;;;3.21;43.18;100216.47;3170114;28;20047;-69
2023/03/29 03:53:16;;;;;;;;;;;;;;;3.22;43.20;100217.34;3170516;28;20090;-68
2023/03/29 03:54:49;;;;;;;3.30;1.77;;;;;;;3.19;43.20;100219.09;3169988;28;19931;-69
2023/03/29 03:56:20;;;;;;;2.42;1.65;;;;;;;3.20;43.06;100217.38;3160895;28;20048;-70
2023/03/29 03:57:52;;;;;;;7.95;2.38;;;;;;;3.24;43.10;100221.59;3165750;28;20047;-70
2023/03/29 03:59:25;;;;;;;5.03;2.42;;;;;;;3.27;42.97;100221.59;3170043;28;20056;-70
2023/03/29 04:00:56;;;;;;;2.92;1.92;;;;;;;3.28;42.90;100233.56;3170067;28;20044;-71
2023/03/29 04:02:28;;;;;;;4.35;2.20;;;;;;;3.28;42.95;100227.56;3169762;28;20047;-71
2023/03/29 04:04:00;;;;;;;3.53;2.20;;;;;;;3.26;42.83;100229.34;3170217;28;20051;-70
2023/03/29 04:05:34;;;;;;;8.52;2.40;;;;;;;3.28;42.89;100232.72;3169531;28;20104;-70
2023/03/29 04:07:04;;;;;;;5.97;2.17;;;;;;;3.28;42.83;100228.41;3169892;28;20052;-70
2023/03/29 04:08:37;;;;;;;6.38;2.40;;;;;;;3.26;42.70;100229.34;3169623;28;20143;-70
2023/03/29 04:10:10;;;;;;;4.50;1.90;;;;;;;3.32;42.87;100224.97;3170312;28;20051;-70
2023/03/29 04:11:42;;;;;;;4.93;2.17;;;;;;;3.33;42.74;100231.81;3169762;28;20039;-71
2023/03/29 04:13:14;;;;;;;5.07;2.17;;;;;;;3.35;42.88;100244.69;3169305;28;20043;-71
2023/03/29 04:14:46;;;;;;;5.15;2.40;;;;;;;3.36;42.83;100242.09;3169677;28;20520;-70
2023/03/29 04:16:18;;;;;;;3.33;2.05;;;;;;;3.34;42.86;100235.25;3169061;28;20108;-70
2023/03/29 04:17:50;;;;;;;4.22;1.95;;;;;;;3.34;42.74;100246.41;3169680;28;20051;-69
2023/03/29 04:19:21;;;;;;;6.53;1.80;;;;;;;3.33;42.87;100239.53;3167970;28;20055;-70
2023/03/29 04:20:54;;;;;;;3.47;2.10;;;;;;;3.35;42.72;100242.13;3169199;28;20051;-71
2023/03/29 04:22:26;;;;;;;4.63;1.90;;;;;;;3.35;42.79;100253.25;3169906;28;20055;-71
2023/03/29 04:23:58;;;;;;;3.42;2.00;;;;;;;3.35;42.69;100242.97;3169259;28;20051;-70
2023/03/29 04:25:29;;;;;;;5.22;2.03;;;;;;;3.35;42.82;100247.28;3169801;28;20082;-70
2023/03/29 04:27:00;;;;;;;8.05;2.03;;;;;;;3.34;42.81;100246.41;3169397;28;20047;-65
2023/03/29 04:28:33;;;;;;;4.55;2.35;;;;;;;3.35;42.63;100268.72;3162868;28;20060;-66
2023/03/29 04:30:07;;;;;;;5.25;2.10;;;;;;;3.21;42.59;100231.94;3169668;28;20127;-65
2023/03/29 04:31:38;;;;;;;4.97;1.95;;;;;;;3.34;42.83;100255.84;3169625;28;20090;-66
2023/03/29 04:33:11;;;;;;;4.75;2.08;;;;;;;3.34;42.98;100250.69;3169377;28;20421;-66
2023/03/29 04:35:01;;;;;;;8.35;3.75;;;;;;;3.36;42.88;100246.38;3168861;28;20108;-65
2023/03/29 04:36:36;;;;;;;58.63;25.88;;;;;;;3.36;43.11;100252.38;3158132;28;20078;-66
2023/03/29 04:38:08;;;;;;;6.30;4.07;;;;;;;3.36;43.12;100257.53;3169008;28;20047;-67
2023/03/29 04:39:41;;;;;;;2.97;1.98;;;;;;;3.37;42.87;100261.84;3170028;28;20595;-68
2023/03/29 04:41:14;;;;;;;4.72;2.20;;;;;;;3.40;42.99;100250.63;3169764;28;20229;-68
2023/03/29 04:42:46;;;;;;;6.10;2.45;;;;;;;3.39;42.96;100262.66;3168202;28;20175;-69
2023/03/29 04:44:18;;;;;;;6.32;2.30;;;;;;;3.40;43.05;100259.25;3169437;28;20127;-68
2023/03/29 04:45:50;;;;;;;9.82;2.30;;;;;;;3.00;42.92;100196.09;3169884;28;20075;-67
2023/03/29 04:47:22;;;;;;;5.50;3.08;;;;;;;3.41;42.97;100263.50;3169438;28;20104;-69
2023/03/29 04:48:54;;;;;;;4.88;2.35;;;;;;;3.41;42.94;100260.94;3169947;28;20059;-70
2023/03/29 04:50:26;;;;;;;5.00;2.60;;;;;;;3.44;42.90;100269.50;3164266;28;20456;-75
2023/03/29 04:51:59;;;;;;;5.78;2.42;;;;;;;3.45;42.87;100263.47;3169313;28;20531;-75
2023/03/29 04:53:31;;;;;;;;;;;;;;;3.44;42.87;100254.06;3168736;28;20079;-80
2023/03/29 04:55:05;;;;;;;3.78;1.88;;;;;;;3.42;42.98;100265.22;3169804;28;20354;-70
2023/03/29 04:56:37;;;;;;;4.18;2.47;;;;;;;3.39;42.78;100270.38;3169251;28;20078;-72
2023/03/29 04:58:09;;;;;;;6.90;2.35;;;;;;;3.37;42.89;100254.13;3167826;28;20492;-71
2023/03/29 04:59:41;;;;;;;6.47;2.13;;;;;;;3.48;42.71;100276.31;3169568;28;20047;-71
2023/03/29 05:01:13;;;;;;;5.85;2.53;;;;;;;3.51;42.68;100272.00;3167860;28;20065;-71
2023/03/29 05:02:46;;;;;;;9.23;2.35;;;;;;;3.52;42.90;100276.31;3169605;28;20055;-70
2023/03/29 05:04:18;;;;;;;3.42;2.00;;;;;;;3.38;42.74;100255.81;3168580;28;20052;-69
2023/03/29 05:05:50;;;;;;;3.03;1.90;;;;;;;3.41;42.75;100255.78;3169072;28;20052;-68
2023/03/29 05:07:23;;;;;;;6.97;2.08;;;;;;;3.55;42.70;100284.00;3169500;28;20043;-66
2023/03/29 05:08:55;;;;;;;8.18;2.50;;;;;;;3.56;42.86;100280.53;3168558;28;20054;-76
2023/03/29 05:10:27;;;;;;;4.57;2.22;;;;;;;3.58;42.64;100276.25;3169716;28;20139;-72
2023/03/29 05:11:59;;;;;;;10.90;2.72;;;;;;;3.60;42.67;100277.06;3168532;28;20054;-70
2023/03/29 05:13:31;;;;;;;3.10;1.90;;;;;;;3.61;42.70;100283.09;3162152;28;20056;-70
2023/03/29 05:15:03;;;;;;;3.38;1.95;;;;;;;3.65;42.78;100283.03;3168492;28;20070;-71
2023/03/29 05:16:36;;;;;;;3.72;2.33;;;;;;;3.64;42.69;100275.34;3169100;28;20048;-72
2023/03/29 05:18:08;;;;;;;5.47;2.03;;;;;;;3.66;42.77;100278.72;3168779;28;20066;-73
2023/03/29 05:19:40;;;;;;;5.97;2.50;;;;;;;3.69;42.66;100281.28;3168582;28;20529;-71
2023/03/29 05:21:12;;;;;;;9.23;2.53;;;;;;;3.70;42.74;100285.59;3169503;28;20063;-70
2023/03/29 05:22:45;;;;;;;4.65;2.10;;;;;;;3.65;42.85;100274.47;3169123;28;20047;-68
2023/03/29 05:24:17;;;;;;;5.05;2.75;;;;;;;3.71;42.83;100281.28;3169329;28;20130;-67
2023/03/29 05:25:49;;;;;;;6.35;3.95;;;;;;;3.73;42.94;100282.97;3169205;28;20055;-64
2023/03/29 05:27:21;;;;;;;15.65;6.82;;;;;;;3.79;42.83;100285.50;3169362;28;20047;-63
2023/03/29 05:28:53;;;;;;;40.33;16.55;;;;;;;3.84;42.61;100286.28;3168083;28;20098;-65
2023/03/29 05:30:25;;;;;;;8.27;4.07;;;;;;;3.90;42.76;100285.38;3171785;28;20577;-66
2023/03/29 05:31:58;;;;;;;5.78;2.30;;;;;;;3.93;42.61;100289.63;3167238;28;20047;-66
2023/03/29 05:33:30;;;;;;;6.95;2.72;;;;;;;3.96;42.56;100289.59;3166331;28;20040;-66
2023/03/29 05:35:02;;;;;;;11.10;2.88;;;;;;;3.93;42.61;100277.59;3172560;28;20051;-66
2023/03/29 05:36:34;;;;;;;12.65;2.70;;;;;;;3.88;42.65;100272.50;3172851;28;20426;-65
2023/03/29 05:38:07;;;;;;;4.78;2.00;;;;;;;3.99;42.55;100287.00;3161953;27;20056;-63
2023/03/29 05:39:39;;;;;;;8.73;2.28;;;;;;;4.02;42.44;100281.81;3169949;28;20055;-65
2023/03/29 05:41:11;;;;;;;4.80;2.08;;;;;;;4.05;42.43;100289.50;3165528;28;20052;-65
2023/03/29 05:42:43;;;;;;;5.80;2.45;;;;;;;4.10;42.50;100295.47;3166610;28;20044;-66
2023/03/29 05:44:15;;;;;;;5.85;1.80;;;;;;;4.06;42.47;100278.34;3168001;28;20114;-66
2023/03/29 05:45:47;;;;;;;10.02;3.95;;;;;;;4.20;42.36;100288.47;3171767;28;20047;-64
2023/03/29 05:47:19;;;;;;;8.77;4.13;;;;;;;4.29;42.21;100299.56;3164594;28;20047;-63
2023/03/29 05:48:51;;;;;;;2.72;1.90;;;;;;;4.43;42.02;100304.53;3164686;28;20576;-65
2023/03/29 05:50:23;;;;;;;3.33;1.63;;;;;;;4.78;41.86;100286.03;3171124;28;20043;-66
2023/03/29 05:51:55;;;;;;;5.63;1.70;;;;;;;5.00;41.06;100224.66;3171085;28;20079;-72
2023/03/29 05:53:29;;;;;;;4.95;1.92;;;;;;;5.97;39.97;100260.91;3170580;28;20078;-64
2023/03/29 05:55:00;;;;;;;;;;;;;;;6.94;38.96;100288.22;3171660;28;20518;-71
2023/03/29 05:56:32;;;;;;;3.67;1.63;;;;;;;7.58;37.45;100291.88;3171088;28;20305;-65
2023/03/29 05:58:04;;;;;;;3.42;1.70;;;;;;;8.05;36.33;100284.63;3169630;28;20048;-69
2023/03/29 05:59:37;;;;;;;5.45;1.83;;;;;;;8.45;35.52;100293.06;3171036;28;20044;-67
2023/03/29 06:01:12;;;;;;;3.45;1.98;;;;;;;8.85;35.17;100288.41;3171068;28;20044;-71
2023/03/29 06:02:44;;;;;;;3.38;1.73;;;;;;;9.11;34.47;100284.16;3171027;28;20048;-65
2023/03/29 06:04:16;;;;;;;5.60;1.60;;;;;;;9.09;33.82;100291.16;3170853;28;20430;-65
2023/03/29 06:05:49;;;;;;;4.20;2.00;;;;;;;8.69;34.20;100292.34;3171151;28;20542;-68
2023/03/29 06:07:22;;;;;;;2.33;1.65;;;;;;;8.19;35.15;100292.00;3171255;28;20309;-67
2023/03/29 06:08:55;;;;;;;7.13;1.85;;;;;;;7.83;35.71;100286.06;3170489;28;20051;-69
2023/03/29 06:10:27;;;;;;;7.93;1.90;;;;;;;7.54;36.15;100292.84;3170980;28;20048;-66
2023/03/29 06:12:00;;;;;;;5.18;2.08;;;;;;;7.34;36.34;100285.56;3170111;28;20040;-67
2023/03/29 06:13:33;;;;;;;6.15;1.88;;;;;;;7.17;36.36;100296.31;3164909;28;20471;-68
2023/03/29 06:15:06;;;;;;;6.30;1.77;;;;;;;7.05;36.37;100300.03;3171198;28;20488;-74
2023/03/29 06:16:37;;;;;;;5.25;1.83;;;;;;;6.94;36.38;100296.84;3171149;28;20127;-63
2023/03/29 06:18:09;;;;;;;8.25;2.33;;;;;;;6.90;36.50;100308.16;3170746;28;20055;-70
2023/03/29 06:19:43;;;;;;;4.85;1.63;;;;;;;6.92;36.63;100306.41;3171157;28;20527;-69
2023/03/29 06:21:15;;;;;;;4.38;1.70;;;;;;;6.99;36.54;100305.38;3171152;28;20183;-69
2023/03/29 06:22:47;;;;;;;4.50;1.90;;;;;;;7.03;36.49;100306.97;3171141;28;20052;-71
2023/03/29 06:24:20;;;;;;;3.92;1.33;;;;;;;7.12;35.98;100316.28;3170419;28;20047;-68
2023/03/29 06:25:52;;;;;;;2.65;1.50;;;;;;;7.13;35.82;100309.38;3170419;28;20080;-65
2023/03/29 06:27:24;;;;;;;2.35;1.25;;;;;;;7.13;35.52;100323.19;3171012;28;20082;-68
2023/03/29 06:28:56;;;;;;;3.40;1.35;;;;;;;7.17;35.54;100311.88;3158460;28;20063;-70
2023/03/29 06:30:28;;;;;;;3.30;1.48;;;;;;;7.22;35.49;100309.19;3171117;28;20432;-68
2023/03/29 06:32:00;;;;;;;3.72;1.27;;;;;;;7.32;35.36;100308.06;3171094;28;20048;-69
2023/03/29 06:33:32;;;;;;;3.50;1.50;;;;;;;7.41;34.66;100331.16;3169159;28;20517;-69
2023/03/29 06:35:05;;;;;;;6.28;1.38;;;;;;;7.40;34.42;100320.84;3158481;28;20060;-71
2023/03/29 06:36:37;;;;;;;3.70;1.65;;;;;;;7.44;34.33;100323.31;3169697;28;20053;-70
2023/03/29 06:38:10;;;;;;;4.45;1.52;;;;;;;7.57;34.39;100323.00;3170457;28;20110;-71
2023/03/29 06:39:43;;;;;;;4.10;1.33;;;;;;;7.75;34.34;100336.38;3168608;28;20048;-69
2023/03/29 06:41:15;;;;;;;3.60;1.50;;;;;;;7.92;34.11;100341.13;3166030;28;20134;-71
2023/03/29 06:42:47;;;;;;;4.63;1.42;;;;;;;8.09;33.68;100338.09;3165908;28;20063;-71
2023/03/29 06:44:19;;;;;;;3.33;1.30;;;;;;;8.28;32.86;100330.69;3163107;28;20047;-71
2023/03/29 06:45:51;;;;;;;3.45;1.48;;;;;;;8.39;32.46;100335.59;3170455;28;20056;-70
2023/03/29 06:47:27;;;;;;;3.75;1.70;;;;;;;8.56;32.46;100333.41;3170308;28;20063;-70
2023/03/29 06:48:59;;;;;;;4.05;1.80;;;;;;;8.86;32.28;100310.03;3170519;28;20531;-73
2023/03/29 06:50:32;;;;;;;6.85;1.83;;;;;;;8.79;31.37;100283.41;3170750;28;20112;-70
2023/03/29 06:52:04;;;;;;;8.68;1.27;;;;;;;9.40;31.08;100335.19;3170714;28;20052;-73
2023/03/29 06:53:36;;;;;;;2.50;1.25;;;;;;;9.59;30.26;100332.03;3170662;28;20044;-70
2023/03/29 06:55:10;;;;;;;3.15;1.38;;;;;;;9.88;30.17;100333.63;3170214;28;20044;-69
2023/03/29 06:56:42;;;;;;;2.75;1.15;;;;;;;10.13;29.85;100334.50;3170552;28;20413;-67
2023/03/29 06:58:14;;;;;;;3.53;1.42;;;;;;;10.37;29.48;100330.22;3163508;28;20052;-68
2023/03/29 06:59:46;;;;;;;5.03;1.20;;;;;;;10.58;29.09;100331.19;3164486;28;20051;-68
2023/03/29 07:01:18;;;;;;;2.88;1.40;;;;;;;10.65;28.42;100332.69;3170155;28;20504;-68
2023/03/29 07:02:50;;;;;;;2.55;1.23;;;;;;;10.82;28.04;100337.25;3170030;28;20055;-67
2023/03/29 07:04:23;;;;;;;3.70;1.60;;;;;;;10.96;28.08;100338.50;3170308;28;20054;-67
2023/03/29 07:06:02;;;;;;;1.95;1.10;;;;;;;11.07;28.04;100344.16;3170551;28;20457;-74
2023/03/29 07:07:52;;;;;;;2.03;1.00;;;;;;;11.12;27.91;100337.84;3169769;28;20054;-69
2023/03/29 07:09:25;;;;;;;3.00;1.02;;;;;;;11.20;27.71;100341.91;3170808;28;20043;-66
2023/03/29 07:11:00;;;;;;;2.95;1.20;;;;;;;10.79;27.65;100253.16;3170038;28;20055;-67
2023/03/29 07:12:31;;;;;;;2.72;1.23;;;;;;;11.44;27.94;100340.94;3168761;28;20502;-68
2023/03/29 07:14:03;;;;;;;2.17;1.17;;;;;;;10.94;27.43;100239.53;3158373;28;20052;-69
2023/03/29 07:15:35;;;;;;;2.97;1.10;;;;;;;11.56;27.32;100350.03;3170039;28;20040;-72
2023/03/29 07:17:07;;;;;;;3.40;1.40;;;;;;;11.56;27.25;100347.41;3169590;28;20104;-70
2023/03/29 07:18:40;;;;;;;3.28;1.15;;;;;;;11.73;27.07;100355.41;3170416;28;20206;-67
2023/03/29 07:20:13;;;;;;;2.20;1.40;;;;;;;11.76;26.74;100331.78;3169839;28;20143;-66
2023/03/29 07:21:45;;;;;;;2.45;1.10;;;;;;;11.82;26.65;100322.88;3170515;28;20059;-68